KMFE/MFE METAR and TAF weather

Enter ICAO airport designator
Station Type Date Time Source
KMFE METAR 2019/06/26 05:53 UTC NOAA

KMFE 260553Z AUTO 12006KT 10SM CLR 26/24 A2999 RMK AO2 SLP153 T02610239 10300 20261 403330222 50010


Station Type Date Time Source
KMFE Decoded METAR 2019/06/26 05:53 UTC NOAA

MCALLEN MILLER INTERNATIONAL AIRPORT , TX, United States (KMFE) 26-11N 98-15W 38M
Jun 26, 2019 - 01:53 AM EDT / 2019.06.26 0553 UTC
Wind: from the ESE (120 degrees) at 7 MPH (6 KT):0
Visibility: 10 mile(s):0
Sky conditions: clear
Temperature: 79.0 F (26.1 C)
Dew Point: 75.0 F (23.9 C)
Relative Humidity: 87%
Pressure (altimeter): 29.99 in. Hg (1015 hPa)
Pressure tendency: 0.03 inches (1.0 hPa) higher than three hours ago
ob: KMFE 260553Z AUTO 12006KT 10SM CLR 26/24 A2999 RMK AO2 SLP153 T02610239 10300 20261 403330222 50010
cycle: 6

Station Type Date Time Source
KMFE TAF 2019/06/26 06:22 UTC NOAA

TAF KMFE 260520Z 2606/2706 11007KT P6SM FEW120
TEMPO 2609/2612 SCT015 BKN030
FM261200 12010KT P6SM SCT015 BKN030
FM261500 12012KT P6SM SCT030 BKN040
FM270000 11010KT P6SM SCT040 BKN050

Example: see airport list